Terminal Aerodrome Forecast
Issued by NWS Shreveport, LA

Home | Current Version | Previous Version | Text Only | Print | Product List | Glossary On
Versions: 1 2 3 4 5 6 7 8 9 10 11 12 13 14 15
000
FTUS44 KSHV 182300
TAFTYR
TAF
KTYR 182339Z 1900/1924 06005KT 5SM BR OVC005
     FM190900 03006KT 4SM -RA BR OVC006
     FM191000 03007KT 3SM SHRA BR OVC004
     FM191700 04007KT 4SM -RA BR OVC006
     FM192000 03007KT 6SM BR OVC010=

USA.gov is the U.S. government's official web portal to all federal, state and local government web resources and services.